sensor_id;sensor_type;location;lat;lon;timestamp;pressure;altitude;pressure_sealevel;temperature;humidity
6833;BME280;3454;42.654;23.378;2023-03-26T00:00:26;64012.81;;;10.20;88.88
6833;BME280;3454;42.654;23.378;2023-03-26T00:02:52;64016.44;;;10.21;88.79
6833;BME280;3454;42.654;23.378;2023-03-26T00:05:17;64011.16;;;10.19;88.71
6833;BME280;3454;42.654;23.378;2023-03-26T00:07:43;64008.22;;;10.13;88.89
6833;BME280;3454;42.654;23.378;2023-03-26T00:10:08;64001.31;;;10.09;89.84
6833;BME280;3454;42.654;23.378;2023-03-26T00:12:34;64007.13;;;10.12;89.79
6833;BME280;3454;42.654;23.378;2023-03-26T00:14:59;64000.31;;;10.04;89.91
6833;BME280;3454;42.654;23.378;2023-03-26T00:17:25;63988.72;;;9.98;90.99
6833;BME280;3454;42.654;23.378;2023-03-26T00:19:50;63992.34;;;9.99;91.31
6833;BME280;3454;42.654;23.378;2023-03-26T00:22:17;63990.38;;;9.99;91.47
6833;BME280;3454;42.654;23.378;2023-03-26T00:24:43;63991.47;;;10.00;90.42
6833;BME280;3454;42.654;23.378;2023-03-26T00:27:11;63989.59;;;9.96;90.71
6833;BME280;3454;42.654;23.378;2023-03-26T00:29:36;63996.50;;;10.00;90.74
6833;BME280;3454;42.654;23.378;2023-03-26T00:32:04;63984.13;;;9.91;90.65
6833;BME280;3454;42.654;23.378;2023-03-26T00:34:29;63988.50;;;9.95;91.01
6833;BME280;3454;42.654;23.378;2023-03-26T00:36:58;63992.66;;;9.97;90.71
6833;BME280;3454;42.654;23.378;2023-03-26T00:39:27;63985.22;;;9.92;90.60
6833;BME280;3454;42.654;23.378;2023-03-26T00:41:53;63989.59;;;9.96;90.05
6833;BME280;3454;42.654;23.378;2023-03-26T00:44:19;63989.03;;;9.96;90.39
6833;BME280;3454;42.654;23.378;2023-03-26T00:46:45;63984.13;;;9.91;90.49
6833;BME280;3454;42.654;23.378;2023-03-26T00:49:11;63974.50;;;9.85;90.40
6833;BME280;3454;42.654;23.378;2023-03-26T00:51:39;63975.38;;;9.83;90.09
6833;BME280;3454;42.654;23.378;2023-03-26T00:54:05;63983.38;;;9.88;89.53
6833;BME280;3454;42.654;23.378;2023-03-26T00:56:33;63991.56;;;9.96;88.69
6833;BME280;3454;42.654;23.378;2023-03-26T00:58:58;63993.41;;;10.00;88.86
6833;BME280;3454;42.654;23.378;2023-03-26T01:01:26;63985.66;;;9.97;87.58
6833;BME280;3454;42.654;23.378;2023-03-26T01:03:53;63988.19;;;9.97;86.69
6833;BME280;3454;42.654;23.378;2023-03-26T01:06:27;63990.16;;;9.97;86.58
6833;BME280;3454;42.654;23.378;2023-03-26T01:08:58;63985.22;;;9.92;86.32
6833;BME280;3454;42.654;23.378;2023-03-26T01:11:33;63988.72;;;9.98;85.67
6833;BME280;3454;42.654;23.378;2023-03-26T01:14:04;64002.16;;;10.08;84.51
6833;BME280;3454;42.654;23.378;2023-03-26T01:16:49;64003.81;;;10.09;83.80
6833;BME280;3454;42.654;23.378;2023-03-26T01:21:58;64009.09;;;10.12;83.44
6833;BME280;3454;42.654;23.378;2023-03-26T01:24:25;64004.94;;;10.10;83.97
6833;BME280;3454;42.654;23.378;2023-03-26T01:29:53;63990.69;;;9.97;85.19
6833;BME280;3454;42.654;23.378;2023-03-26T01:46:22;63972.97;;;9.79;88.23
6833;BME280;3454;42.654;23.378;2023-03-26T01:48:50;63975.38;;;9.83;88.77
6833;BME280;3454;42.654;23.378;2023-03-26T01:51:34;63965.53;;;9.74;89.63
6833;BME280;3454;42.654;23.378;2023-03-26T01:54:03;63967.72;;;9.76;90.71
6833;BME280;3454;42.654;23.378;2023-03-26T02:02:10;63968.81;;;9.77;90.86
6833;BME280;3454;42.654;23.378;2023-03-26T02:04:58;63970.69;;;9.81;90.93
6833;BME280;3454;42.654;23.378;2023-03-26T02:07:42;63966.63;;;9.75;91.64
6833;BME280;3454;42.654;23.378;2023-03-26T02:12:37;63966.63;;;9.75;92.27
6833;BME280;3454;42.654;23.378;2023-03-26T02:15:04;63954.59;;;9.64;93.36
6833;BME280;3454;42.654;23.378;2023-03-26T02:17:30;63954.81;;;9.67;92.74
6833;BME280;3454;42.654;23.378;2023-03-26T02:19:57;63956.78;;;9.66;93.24
6833;BME280;3454;42.654;23.378;2023-03-26T02:22:29;63948.25;;;9.61;94.25
6833;BME280;3454;42.654;23.378;2023-03-26T02:24:55;63955.16;;;9.65;94.53
6833;BME280;3454;42.654;23.378;2023-03-26T02:27:20;63949.47;;;9.57;94.69
6833;BME280;3454;42.654;23.378;2023-03-26T02:29:46;63934.81;;;9.51;95.47
6833;BME280;3454;42.654;23.378;2023-03-26T02:32:12;63934.59;;;9.48;95.46
6833;BME280;3454;42.654;23.378;2023-03-26T02:34:41;63930.31;;;9.40;95.44
6833;BME280;3454;42.654;23.378;2023-03-26T02:37:07;63931.66;;;9.43;95.54
6833;BME280;3454;42.654;23.378;2023-03-26T02:39:33;63934.38;;;9.46;95.22
6833;BME280;3454;42.654;23.378;2023-03-26T02:41:59;63927.06;;;9.37;95.58
6833;BME280;3454;42.654;23.378;2023-03-26T02:44:25;63932.72;;;9.44;95.12
6833;BME280;3454;42.654;23.378;2023-03-26T02:46:51;63922.56;;;9.37;95.21
6833;BME280;3454;42.654;23.378;2023-03-26T02:49:16;63924.53;;;9.37;95.51
6833;BME280;3454;42.654;23.378;2023-03-26T02:51:42;63928.34;;;9.40;95.69
6833;BME280;3454;42.654;23.378;2023-03-26T02:54:07;63927.06;;;9.37;95.89
6833;BME280;3454;42.654;23.378;2023-03-26T02:56:33;63921.47;;;9.36;96.28
6833;BME280;3454;42.654;23.378;2023-03-26T02:58:58;63917.44;;;9.30;97.15
6833;BME280;3454;42.654;23.378;2023-03-26T03:01:23;63911.97;;;9.25;97.38
6833;BME280;3454;42.654;23.378;2023-03-26T03:03:49;63904.63;;;9.16;98.47
6833;BME280;3454;42.654;23.378;2023-03-26T03:06:15;63887.59;;;9.05;98.84
6833;BME280;3454;42.654;23.378;2023-03-26T03:08:43;63894.47;;;9.09;98.42
6833;BME280;3454;42.654;23.378;2023-03-26T03:11:17;63891.41;;;9.08;97.50
6833;BME280;3454;42.654;23.378;2023-03-26T03:13:46;63899.94;;;9.14;96.90
6833;BME280;3454;42.654;23.378;2023-03-26T03:16:11;63901.78;;;9.18;96.79
6833;BME280;3454;42.654;23.378;2023-03-26T03:18:37;63902.13;;;9.16;97.03
6833;BME280;3454;42.654;23.378;2023-03-26T03:21:03;63898.84;;;9.13;96.70
6833;BME280;3454;42.654;23.378;2023-03-26T03:23:30;63892.28;;;9.07;97.51
6833;BME280;3454;42.654;23.378;2023-03-26T03:25:56;63889.34;;;9.02;97.42
6833;BME280;3454;42.654;23.378;2023-03-26T03:28:23;63889.34;;;9.02;97.61
6833;BME280;3454;42.654;23.378;2023-03-26T03:30:48;63885.72;;;9.01;97.59
6833;BME280;3454;42.654;23.378;2023-03-26T03:33:20;63874.13;;;8.95;97.84
6833;BME280;3454;42.654;23.378;2023-03-26T03:35:47;63878.06;;;8.94;97.48
6833;BME280;3454;42.654;23.378;2023-03-26T03:38:14;63872.59;;;8.89;97.97
6833;BME280;3454;42.654;23.378;2023-03-26T03:40:40;63872.59;;;8.89;97.69
6833;BME280;3454;42.654;23.378;2023-03-26T03:43:06;63866.28;;;8.85;98.12
6833;BME280;3454;42.654;23.378;2023-03-26T03:45:31;63858.97;;;8.76;98.58
6833;BME280;3454;42.654;23.378;2023-03-26T03:47:57;63862.78;;;8.80;98.71
6833;BME280;3454;42.654;23.378;2023-03-26T03:50:22;63859.28;;;8.74;98.83
6833;BME280;3454;42.654;23.378;2023-03-26T03:52:48;63848.56;;;8.67;99.35
6833;BME280;3454;42.654;23.378;2023-03-26T03:55:15;63849.34;;;8.70;99.73
6833;BME280;3454;42.654;23.378;2023-03-26T03:57:40;63836.56;;;8.56;99.85
6833;BME280;3454;42.654;23.378;2023-03-26T04:00:06;63839.84;;;8.59;99.77
6833;BME280;3454;42.654;23.378;2023-03-26T04:02:33;63839.31;;;8.58;100.00
6833;BME280;3454;42.654;23.378;2023-03-26T04:04:59;63846.94;;;8.65;100.00
6833;BME280;3454;42.654;23.378;2023-03-26T04:07:27;63839.84;;;8.59;100.00
6833;BME280;3454;42.654;23.378;2023-03-26T04:09:54;63840.94;;;8.60;100.00
6833;BME280;3454;42.654;23.378;2023-03-26T04:12:20;63835.47;;;8.55;100.00
6833;BME280;3454;42.654;23.378;2023-03-26T04:14:45;63843.66;;;8.62;100.00
6833;BME280;3454;42.654;23.378;2023-03-26T04:17:11;63846.38;;;8.65;100.00
6833;BME280;3454;42.654;23.378;2023-03-26T04:19:38;63848.91;;;8.65;100.00
6833;BME280;3454;42.654;23.378;2023-03-26T04:22:04;63844.19;;;8.63;100.00
6833;BME280;3454;42.654;23.378;2023-03-26T04:24:32;63843.34;;;8.64;100.00
6833;BME280;3454;42.654;23.378;2023-03-26T04:27:07;63849.66;;;8.68;100.00
6833;BME280;3454;42.654;23.378;2023-03-26T04:29:38;63854.59;;;8.72;100.00
6833;BME280;3454;42.654;23.378;2023-03-26T04:32:09;63849.34;;;8.70;100.00
6833;BME280;3454;42.654;23.378;2023-03-26T04:34:37;63849.91;;;8.70;100.00
6833;BME280;3454;42.654;23.378;2023-03-26T04:37:16;63848.56;;;8.67;100.00
6833;BME280;3454;42.654;23.378;2023-03-26T04:39:44;63858.41;;;8.76;99.74
6833;BME280;3454;42.654;23.378;2023-03-26T04:42:10;63852.94;;;8.71;100.00
6833;BME280;3454;42.654;23.378;2023-03-26T04:44:35;63852.94;;;8.71;100.00
6833;BME280;3454;42.654;23.378;2023-03-26T04:47:00;63852.63;;;8.73;100.00
6833;BME280;3454;42.654;23.378;2023-03-26T04:49:26;63849.13;;;8.67;99.66
6833;BME280;3454;42.654;23.378;2023-03-26T04:51:52;63851.84;;;8.70;99.80
6833;BME280;3454;42.654;23.378;2023-03-26T04:54:19;63849.13;;;8.67;98.65
6833;BME280;3454;42.654;23.378;2023-03-26T04:56:56;63859.50;;;8.77;98.12
6833;BME280;3454;42.654;23.378;2023-03-26T04:59:31;63857.75;;;8.80;98.48
6833;BME280;3454;42.654;23.378;2023-03-26T05:02:00;63858.63;;;8.78;97.58
6833;BME280;3454;42.654;23.378;2023-03-26T05:04:27;63862.22;;;8.79;96.16
6833;BME280;3454;42.654;23.378;2023-03-26T05:06:58;63870.66;;;8.89;95.84
6833;BME280;3454;42.654;23.378;2023-03-26T05:09:25;63884.41;;;8.97;95.35
6833;BME280;3454;42.654;23.378;2023-03-26T05:11:50;63876.97;;;8.93;94.06
6833;BME280;3454;42.654;23.378;2023-03-26T05:14:16;63878.84;;;8.97;93.75
6833;BME280;3454;42.654;23.378;2023-03-26T05:16:43;63871.53;;;8.88;92.88
6833;BME280;3454;42.654;23.378;2023-03-26T05:19:09;63878.06;;;8.94;92.87
6833;BME280;3454;42.654;23.378;2023-03-26T05:21:35;63867.72;;;8.84;91.33
6833;BME280;3454;42.654;23.378;2023-03-26T05:24:00;63875.13;;;8.89;90.81
6833;BME280;3454;42.654;23.378;2023-03-26T05:26:27;63879.94;;;8.98;91.35
6833;BME280;3454;42.654;23.378;2023-03-26T05:28:54;63879.16;;;8.95;91.65
6833;BME280;3454;42.654;23.378;2023-03-26T05:31:20;63880.81;;;8.96;91.74
6833;BME280;3454;42.654;23.378;2023-03-26T05:33:46;63880.25;;;8.96;92.84
6833;BME280;3454;42.654;23.378;2023-03-26T05:36:12;63878.06;;;8.94;93.66
6833;BME280;3454;42.654;23.378;2023-03-26T05:38:38;63898.84;;;9.13;92.49
6833;BME280;3454;42.654;23.378;2023-03-26T05:41:06;63891.19;;;9.06;93.00
6833;BME280;3454;42.654;23.378;2023-03-26T05:43:32;63881.91;;;8.97;94.04
6833;BME280;3454;42.654;23.378;2023-03-26T05:45:58;63894.03;;;9.04;93.52
6833;BME280;3454;42.654;23.378;2023-03-26T05:48:24;63886.28;;;9.01;94.30
6833;BME280;3454;42.654;23.378;2023-03-26T05:50:52;63889.56;;;9.04;94.43
6833;BME280;3454;42.654;23.378;2023-03-26T05:53:19;63901.56;;;9.15;93.36
6833;BME280;3454;42.654;23.378;2023-03-26T05:55:46;63900.50;;;9.14;94.03
6833;BME280;3454;42.654;23.378;2023-03-26T05:58:15;63908.69;;;9.22;93.87
6833;BME280;3454;42.654;23.378;2023-03-26T06:00:41;63905.75;;;9.17;93.62
6833;BME280;3454;42.654;23.378;2023-03-26T06:03:07;63886.50;;;9.04;94.02
6833;BME280;3454;42.654;23.378;2023-03-26T06:05:38;63905.41;;;9.19;93.62
6833;BME280;3454;42.654;23.378;2023-03-26T06:08:04;63926.94;;;9.41;91.38
6833;BME280;3454;42.654;23.378;2023-03-26T06:10:30;63928.59;;;9.43;90.87
6833;BME280;3454;42.654;23.378;2023-03-26T06:12:56;63938.75;;;9.50;88.88
6833;BME280;3454;42.654;23.378;2023-03-26T06:15:22;63933.84;;;9.45;87.57
6833;BME280;3454;42.654;23.378;2023-03-26T06:17:47;63938.41;;;9.52;86.37
6833;BME280;3454;42.654;23.378;2023-03-26T06:20:13;63952.09;;;9.64;85.61
6833;BME280;3454;42.654;23.378;2023-03-26T06:22:39;63935.69;;;9.49;85.31
6833;BME280;3454;42.654;23.378;2023-03-26T06:25:05;63936.22;;;9.50;84.76
6833;BME280;3454;42.654;23.378;2023-03-26T06:27:31;63943.66;;;9.54;85.13
6833;BME280;3454;42.654;23.378;2023-03-26T06:29:56;63940.59;;;9.54;84.05
6833;BME280;3454;42.654;23.378;2023-03-26T06:32:22;63952.41;;;9.62;84.14
6833;BME280;3454;42.654;23.378;2023-03-26T06:34:47;63955.16;;;9.65;83.66
6833;BME280;3454;42.654;23.378;2023-03-26T06:37:13;63972.66;;;9.81;83.04
6833;BME280;3454;42.654;23.378;2023-03-26T06:39:38;63981.41;;;9.89;82.92
6833;BME280;3454;42.654;23.378;2023-03-26T06:42:03;64008.00;;;10.11;81.23
6833;BME280;3454;42.654;23.378;2023-03-26T06:44:29;64004.94;;;10.10;80.41
6833;BME280;3454;42.654;23.378;2023-03-26T06:46:54;63993.09;;;10.02;79.79
6833;BME280;3454;42.654;23.378;2023-03-26T06:49:20;63995.06;;;10.01;81.23
6833;BME280;3454;42.654;23.378;2023-03-26T06:51:45;64012.94;;;10.16;79.16
6833;BME280;3454;42.654;23.378;2023-03-26T06:54:12;64006.25;;;10.14;77.06
6833;BME280;3454;42.654;23.378;2023-03-26T06:56:37;63998.56;;;10.07;77.56
6833;BME280;3454;42.654;23.378;2023-03-26T06:59:03;64029.00;;;10.33;76.15
6833;BME280;3454;42.654;23.378;2023-03-26T07:01:28;64036.34;;;10.42;75.65
6833;BME280;3454;42.654;23.378;2023-03-26T07:03:54;64026.28;;;10.30;75.78
6833;BME280;3454;42.654;23.378;2023-03-26T07:06:19;64042.13;;;10.45;75.94
6833;BME280;3454;42.654;23.378;2023-03-26T07:08:45;64057.47;;;10.59;76.06
6833;BME280;3454;42.654;23.378;2023-03-26T07:11:10;64067.88;;;10.68;75.69
6833;BME280;3454;42.654;23.378;2023-03-26T07:13:36;64046.75;;;10.51;73.36
6833;BME280;3454;42.654;23.378;2023-03-26T07:16:02;64085.91;;;10.85;72.97
6833;BME280;3454;42.654;23.378;2023-03-26T07:18:28;64087.59;;;10.86;72.28
6833;BME280;3454;42.654;23.378;2023-03-26T07:20:54;64062.63;;;10.66;74.21
6833;BME280;3454;42.654;23.378;2023-03-26T07:23:19;64065.13;;;10.66;73.86
6833;BME280;3454;42.654;23.378;2023-03-26T07:25:48;64081.53;;;10.81;73.24
6833;BME280;3454;42.654;23.378;2023-03-26T07:28:22;64068.06;;;10.71;71.95
6833;BME280;3454;42.654;23.378;2023-03-26T07:43:59;64110.00;;;11.07;68.28
6833;BME280;3454;42.654;23.378;2023-03-26T07:46:31;64115.50;;;11.12;68.20
6833;BME280;3454;42.654;23.378;2023-03-26T07:48:58;64125.69;;;11.19;68.32
6833;BME280;3454;42.654;23.378;2023-03-26T07:51:26;64144.53;;;11.39;66.71
6833;BME280;3454;42.654;23.378;2023-03-26T07:53:52;64136.53;;;11.34;66.86
6833;BME280;3454;42.654;23.378;2023-03-26T07:56:19;64145.63;;;11.40;67.77
6833;BME280;3454;42.654;23.378;2023-03-26T07:59:12;64151.31;;;11.47;67.43
6833;BME280;3454;42.654;23.378;2023-03-26T08:10:08;64165.34;;;11.58;64.01
6833;BME280;3454;42.654;23.378;2023-03-26T08:21:03;64253.47;;;12.43;59.94
6833;BME280;3454;42.654;23.378;2023-03-26T08:23:47;64307.34;;;12.88;59.65
6833;BME280;3454;42.654;23.378;2023-03-26T08:26:35;64355.31;;;13.34;58.23
6833;BME280;3454;42.654;23.378;2023-03-26T08:29:19;64335.91;;;13.14;57.46
6833;BME280;3454;42.654;23.378;2023-03-26T08:31:48;64345.09;;;13.27;54.74
6833;BME280;3454;42.654;23.378;2023-03-26T08:34:14;64339.41;;;13.20;55.33
6833;BME280;3454;42.654;23.378;2023-03-26T08:36:40;64306.81;;;12.88;51.93
6833;BME280;3454;42.654;23.378;2023-03-26T08:39:06;64302.63;;;12.86;52.30
6833;BME280;3454;42.654;23.378;2023-03-26T08:58:17;64555.63;;;15.15;46.65
6833;BME280;3454;42.654;23.378;2023-03-26T09:37:59;64587.19;;;15.47;41.81
6833;BME280;3454;42.654;23.378;2023-03-26T09:40:35;64590.28;;;15.47;40.49
6833;BME280;3454;42.654;23.378;2023-03-26T09:46:11;64646.94;;;15.99;40.36
6833;BME280;3454;42.654;23.378;2023-03-26T09:48:52;64695.78;;;16.48;39.34
6833;BME280;3454;42.654;23.378;2023-03-26T09:56:52;64653.22;;;16.07;40.63
6833;BME280;3454;42.654;23.378;2023-03-26T09:59:41;64697.47;;;16.50;40.36
6833;BME280;3454;42.654;23.378;2023-03-26T10:10:54;64686.22;;;16.37;40.06
6833;BME280;3454;42.654;23.378;2023-03-26T10:16:09;64633.63;;;15.91;39.10
6833;BME280;3454;42.654;23.378;2023-03-26T10:21:29;64792.75;;;17.37;37.92
6833;BME280;3454;42.654;23.378;2023-03-26T10:30:11;64857.91;;;17.92;38.18
6833;BME280;3454;42.654;23.378;2023-03-26T10:35:21;64755.28;;;17.03;36.86
6833;BME280;3454;42.654;23.378;2023-03-26T10:54:10;64787.22;;;17.32;33.96
6833;BME280;3454;42.654;23.378;2023-03-26T10:59:11;64928.19;;;18.58;33.32
6833;BME280;3454;42.654;23.378;2023-03-26T11:01:45;64935.00;;;18.67;32.67
6833;BME280;3454;42.654;23.378;2023-03-26T11:04:35;64938.88;;;18.70;33.34
6833;BME280;3454;42.654;23.378;2023-03-26T11:23:36;64878.19;;;18.15;30.68
6833;BME280;3454;42.654;23.378;2023-03-26T11:26:14;64921.00;;;18.52;30.46
6833;BME280;3454;42.654;23.378;2023-03-26T11:28:59;64876.53;;;18.13;30.70
6833;BME280;3454;42.654;23.378;2023-03-26T11:34:02;64893.06;;;18.28;30.74
6833;BME280;3454;42.654;23.378;2023-03-26T11:36:34;64870.25;;;18.05;30.27
6833;BME280;3454;42.654;23.378;2023-03-26T11:39:04;65025.88;;;19.47;30.68
6833;BME280;3454;42.654;23.378;2023-03-26T11:41:33;64926.72;;;18.59;29.31
6833;BME280;3454;42.654;23.378;2023-03-26T11:46:38;64856.69;;;17.95;30.36
6833;BME280;3454;42.654;23.378;2023-03-26T11:49:08;64873.78;;;18.11;29.85
6833;BME280;3454;42.654;23.378;2023-03-26T11:51:40;64895.63;;;18.28;29.74
6833;BME280;3454;42.654;23.378;2023-03-26T11:54:10;64989.97;;;19.14;28.08
6833;BME280;3454;42.654;23.378;2023-03-26T11:59:18;65026.28;;;19.52;27.54
6833;BME280;3454;42.654;23.378;2023-03-26T12:07:15;64981.34;;;19.09;27.62
6833;BME280;3454;42.654;23.378;2023-03-26T12:12:20;65011.16;;;19.36;28.20
6833;BME280;3454;42.654;23.378;2023-03-26T12:14:46;65008.97;;;19.34;29.29
6833;BME280;3454;42.654;23.378;2023-03-26T12:17:23;65025.88;;;19.47;27.07
6833;BME280;3454;42.654;23.378;2023-03-26T12:19:49;65063.63;;;19.84;26.99
6833;BME280;3454;42.654;23.378;2023-03-26T12:22:41;64987.44;;;19.14;27.57
6833;BME280;3454;42.654;23.378;2023-03-26T12:25:22;65064.72;;;19.85;26.76
6833;BME280;3454;42.654;23.378;2023-03-26T12:28:01;65037.66;;;19.60;26.06
6833;BME280;3454;42.654;23.378;2023-03-26T12:33:24;65036.03;;;19.59;26.75
6833;BME280;3454;42.654;23.378;2023-03-26T12:35:51;65029.94;;;19.53;27.29
6833;BME280;3454;42.654;23.378;2023-03-26T12:38:29;65029.94;;;19.53;27.11
6833;BME280;3454;42.654;23.378;2023-03-26T12:41:19;65073.91;;;19.91;26.21
6833;BME280;3454;42.654;23.378;2023-03-26T12:43:50;65118.13;;;20.31;25.83
6833;BME280;3454;42.654;23.378;2023-03-26T12:46:27;65204.00;;;21.12;24.97
6833;BME280;3454;42.654;23.378;2023-03-26T12:49:04;65239.38;;;21.44;25.80
6833;BME280;3454;42.654;23.378;2023-03-26T12:51:50;65161.75;;;20.71;24.10
6833;BME280;3454;42.654;23.378;2023-03-26T12:54:47;65223.75;;;21.34;23.24
6833;BME280;3454;42.654;23.378;2023-03-26T12:57:21;65064.72;;;19.85;23.40
6833;BME280;3454;42.654;23.378;2023-03-26T13:08:23;65087.91;;;20.06;22.83
6833;BME280;3454;42.654;23.378;2023-03-26T13:16:28;65153.69;;;20.66;22.71
6833;BME280;3454;42.654;23.378;2023-03-26T13:19:05;65236.63;;;21.41;23.51
6833;BME280;3454;42.654;23.378;2023-03-26T13:22:00;65145.06;;;20.60;22.17
6833;BME280;3454;42.654;23.378;2023-03-26T13:32:43;65143.38;;;20.59;24.04
6833;BME280;3454;42.654;23.378;2023-03-26T13:35:26;65094.00;;;20.12;23.47
6833;BME280;3454;42.654;23.378;2023-03-26T13:38:13;65213.97;;;21.21;23.46
6833;BME280;3454;42.654;23.378;2023-03-26T13:46:15;65113.56;;;20.32;23.00
6833;BME280;3454;42.654;23.378;2023-03-26T13:51:48;65151.84;;;20.62;23.03
6833;BME280;3454;42.654;23.378;2023-03-26T13:57:23;65136.19;;;20.52;22.63
6833;BME280;3454;42.654;23.378;2023-03-26T14:02:39;65129.38;;;20.44;22.24
6833;BME280;3454;42.654;23.378;2023-03-26T14:10:14;65029.19;;;19.50;20.75
6833;BME280;3454;42.654;23.378;2023-03-26T14:13:12;65018.34;;;19.43;21.67
6833;BME280;3454;42.654;23.378;2023-03-26T14:15:48;65015.03;;;19.40;20.46
6833;BME280;3454;42.654;23.378;2023-03-26T14:18:36;65004.97;;;19.35;20.90
6833;BME280;3454;42.654;23.378;2023-03-26T14:21:27;65039.31;;;19.62;20.97
6833;BME280;3454;42.654;23.378;2023-03-26T14:31:41;65061.75;;;19.80;22.29
6833;BME280;3454;42.654;23.378;2023-03-26T14:34:32;65150.72;;;20.61;22.37
6833;BME280;3454;42.654;23.378;2023-03-26T14:42:28;65092.88;;;20.10;23.88
6833;BME280;3454;42.654;23.378;2023-03-26T14:47:51;65207.34;;;21.15;23.66
6833;BME280;3454;42.654;23.378;2023-03-26T14:53:28;65203.44;;;21.11;24.41
6833;BME280;3454;42.654;23.378;2023-03-26T14:56:14;65196.28;;;21.05;24.41
6833;BME280;3454;42.654;23.378;2023-03-26T15:10:21;65049.81;;;19.71;25.57
6833;BME280;3454;42.654;23.378;2023-03-26T15:13:18;65062.91;;;19.88;27.92
6833;BME280;3454;42.654;23.378;2023-03-26T15:16:44;65113.69;;;20.27;26.53
6833;BME280;3454;42.654;23.378;2023-03-26T15:22:03;65099.50;;;20.17;23.83
6833;BME280;3454;42.654;23.378;2023-03-26T15:27:55;65155.91;;;20.68;31.56
6833;BME280;3454;42.654;23.378;2023-03-26T15:43:20;65201.78;;;21.10;25.52
6833;BME280;3454;42.654;23.378;2023-03-26T15:45:52;65178.56;;;20.88;23.21
6833;BME280;3454;42.654;23.378;2023-03-26T15:55:08;65183.53;;;20.93;26.85
6833;BME280;3454;42.654;23.378;2023-03-26T15:58:04;65118.88;;;20.34;27.11
6833;BME280;3454;42.654;23.378;2023-03-26T16:00:41;65122.19;;;20.37;26.00
6833;BME280;3454;42.654;23.378;2023-03-26T16:03:23;65068.94;;;19.86;27.03
6833;BME280;3454;42.654;23.378;2023-03-26T16:11:49;64882.03;;;18.18;27.16
6833;BME280;3454;42.654;23.378;2023-03-26T16:14:37;64832.78;;;17.71;28.77
6833;BME280;3454;42.654;23.378;2023-03-26T16:17:11;64807.97;;;17.48;29.25
6833;BME280;3454;42.654;23.378;2023-03-26T16:19:47;64769.94;;;17.14;30.10
6833;BME280;3454;42.654;23.378;2023-03-26T16:27:42;64683.47;;;16.35;33.27
6833;BME280;3454;42.654;23.378;2023-03-26T16:30:24;64675.97;;;16.30;32.03
6833;BME280;3454;42.654;23.378;2023-03-26T16:32:56;64654.31;;;16.08;32.68
6833;BME280;3454;42.654;23.378;2023-03-26T16:35:38;64631.53;;;15.85;32.80
6833;BME280;3454;42.654;23.378;2023-03-26T16:40:59;64604.81;;;15.63;31.87
6833;BME280;3454;42.654;23.378;2023-03-26T16:57:25;64637.59;;;15.90;34.75
6833;BME280;3454;42.654;23.378;2023-03-26T17:03:15;64568.13;;;15.32;36.88
6833;BME280;3454;42.654;23.378;2023-03-26T17:08:20;64553.06;;;15.15;35.80
6833;BME280;3454;42.654;23.378;2023-03-26T17:13:22;64558.59;;;15.21;35.31
6833;BME280;3454;42.654;23.378;2023-03-26T17:21:16;64531.09;;;14.95;36.90
6833;BME280;3454;42.654;23.378;2023-03-26T17:24:06;64508.03;;;14.74;36.76
6833;BME280;3454;42.654;23.378;2023-03-26T17:32:08;64492.06;;;14.60;37.91
6833;BME280;3454;42.654;23.378;2023-03-26T17:42:27;64480.88;;;14.47;37.54
6833;BME280;3454;42.654;23.378;2023-03-26T17:44:56;64478.34;;;14.47;37.14
6833;BME280;3454;42.654;23.378;2023-03-26T17:49:55;64447.91;;;14.17;38.66
6833;BME280;3454;42.654;23.378;2023-03-26T17:52:28;64467.00;;;14.39;37.74
6833;BME280;3454;42.654;23.378;2023-03-26T17:54:59;64466.25;;;14.36;37.79
6833;BME280;3454;42.654;23.378;2023-03-26T17:57:47;64451.06;;;14.24;37.38
6833;BME280;3454;42.654;23.378;2023-03-26T18:00:39;64542.63;;;15.06;54.93
6833;BME280;3454;42.654;23.378;2023-03-26T18:03:21;64558.59;;;15.21;41.03
6833;BME280;3454;42.654;23.378;2023-03-26T18:05:52;64562.66;;;15.27;40.00
6833;BME280;3454;42.654;23.378;2023-03-26T18:08:42;64536.25;;;15.02;40.26
6833;BME280;3454;42.654;23.378;2023-03-26T18:14:07;64515.69;;;14.81;38.60
6833;BME280;3454;42.654;23.378;2023-03-26T18:16:39;64500.09;;;14.65;38.62
6833;BME280;3454;42.654;23.378;2023-03-26T18:19:14;64464.81;;;14.37;38.30
6833;BME280;3454;42.654;23.378;2023-03-26T18:21:55;64448.44;;;14.17;38.51
6833;BME280;3454;42.654;23.378;2023-03-26T18:24:38;64414.28;;;13.91;38.71
6833;BME280;3454;42.654;23.378;2023-03-26T18:27:16;64419.34;;;13.91;38.70
6833;BME280;3454;42.654;23.378;2023-03-26T18:29:45;64420.41;;;13.92;38.54
6833;BME280;3454;42.654;23.378;2023-03-26T18:34:38;64396.81;;;13.70;39.11
6833;BME280;3454;42.654;23.378;2023-03-26T18:37:12;64391.53;;;13.68;39.96
6833;BME280;3454;42.654;23.378;2023-03-26T18:39:54;64395.19;;;13.69;39.60
6833;BME280;3454;42.654;23.378;2023-03-26T18:42:20;64392.97;;;13.67;39.70
6833;BME280;3454;42.654;23.378;2023-03-26T18:44:48;64405.81;;;13.81;38.35
6833;BME280;3454;42.654;23.378;2023-03-26T18:47:15;64404.19;;;13.79;38.11
6833;BME280;3454;42.654;23.378;2023-03-26T18:49:42;64405.59;;;13.78;37.47
6833;BME280;3454;42.654;23.378;2023-03-26T18:52:13;64384.41;;;13.61;38.66
6833;BME280;3454;42.654;23.378;2023-03-26T18:54:41;64385.50;;;13.62;37.50
6833;BME280;3454;42.654;23.378;2023-03-26T18:57:09;64376.94;;;13.57;37.14
6833;BME280;3454;42.654;23.378;2023-03-26T18:59:35;64384.94;;;13.62;37.26
6833;BME280;3454;42.654;23.378;2023-03-26T19:02:05;64396.25;;;13.70;40.41
6833;BME280;3454;42.654;23.378;2023-03-26T19:04:34;64395.41;;;13.71;44.63
6833;BME280;3454;42.654;23.378;2023-03-26T19:07:03;64463.28;;;14.31;47.80
6833;BME280;3454;42.654;23.378;2023-03-26T19:09:30;64448.84;;;14.22;38.16
6833;BME280;3454;42.654;23.378;2023-03-26T19:11:57;64438.75;;;14.11;38.46
6833;BME280;3454;42.654;23.378;2023-03-26T19:14:28;64436.00;;;14.08;38.60
6833;BME280;3454;42.654;23.378;2023-03-26T19:17:00;64430.31;;;14.01;38.02
6833;BME280;3454;42.654;23.378;2023-03-26T19:19:35;64420.09;;;13.94;36.91
6833;BME280;3454;42.654;23.378;2023-03-26T19:22:03;64414.59;;;13.89;38.12
6833;BME280;3454;42.654;23.378;2023-03-26T19:24:29;64406.16;;;13.79;37.52
6833;BME280;3454;42.654;23.378;2023-03-26T19:26:55;64414.06;;;13.88;37.39
6833;BME280;3454;42.654;23.378;2023-03-26T19:29:27;64393.53;;;13.67;36.34
6833;BME280;3454;42.654;23.378;2023-03-26T19:32:01;64391.00;;;13.67;35.94